Time;durP1;ratioP1;P1;durP2;ratioP2;P2;SDS_P1;SDS_P2;PMS_P1;PMS_P2;Temp;Humidity;BMP_temperature;BMP_pressure;BME280_temperature;BME280_humidity;BME280_pressure;Samples;Min_cycle;Max_cycle;Signal;HPM_P1;HPM_P2
2023/03/08 00:00:47;;;;;;;5.60;4.50;;;;;;;10.69;38.99;94089.06;4966345;28;20231;-68
2023/03/08 00:03:14;;;;;;;4.80;4.20;;;;;;;10.70;39.03;94100.41;4961877;28;20230;-68
2023/03/08 00:05:40;;;;;;;5.67;4.00;;;;;;;10.65;38.87;94097.47;4964214;28;20278;-66
2023/03/08 00:08:05;;;;;;;6.43;3.90;;;;;;;10.70;38.63;94105.66;4962425;28;20236;-66
2023/03/08 00:10:30;;;;;;;5.73;4.47;;;;;;;10.69;38.91;94104.00;4956275;28;20196;-66
2023/03/08 00:12:56;;;;;;;5.53;4.20;;;;;;;10.69;38.98;94104.00;4967460;28;20196;-66
2023/03/08 00:15:21;;;;;;;7.33;4.67;;;;;;;10.57;39.24;94103.59;4963209;28;20228;-65
2023/03/08 00:17:47;;;;;;;6.33;3.90;;;;;;;10.50;39.50;94107.91;4964957;28;20234;-65
2023/03/08 00:20:12;;;;;;;4.93;4.43;;;;;;;10.44;39.56;94106.78;4961193;28;20290;-64
2023/03/08 00:22:39;;;;;;;6.60;3.97;;;;;;;10.44;39.82;94105.97;4948637;28;20561;-65
2023/03/08 00:25:05;;;;;;;4.40;3.97;;;;;;;10.43;39.71;94099.91;4966901;28;20537;-65
2023/03/08 00:27:31;;;;;;;4.97;3.90;;;;;;;10.50;39.49;94100.84;4967144;28;20227;-66
2023/03/08 00:29:57;;;;;;;4.60;3.70;;;;;;;10.51;39.43;94105.13;4966115;28;20338;-65
2023/03/08 00:32:26;;;;;;;7.30;4.47;;;;;;;10.36;39.96;94099.78;4977445;28;20302;-65
2023/03/08 00:34:52;;;;;;;5.17;4.07;;;;;;;10.43;39.71;94099.91;4986517;28;20223;-65
2023/03/08 00:37:18;;;;;;;6.73;4.00;;;;;;;10.44;40.09;94101.53;4976089;28;20206;-66
2023/03/08 00:39:44;;;;;;;4.93;3.90;;;;;;;10.43;39.84;94099.91;4969309;28;20652;-67
2023/03/08 00:42:09;;;;;;;4.53;3.50;;;;;;;10.36;40.18;94089.25;4965963;28;20243;-66
2023/03/08 00:44:35;;;;;;;6.13;4.10;;;;;;;10.32;40.32;94092.44;4967322;28;20242;-67
2023/03/08 00:47:01;;;;;;;5.47;3.90;;;;;;;10.24;40.79;94092.44;4968235;28;20277;-67
2023/03/08 00:49:26;;;;;;;5.07;3.17;;;;;;;10.24;40.73;94092.44;4965723;28;20224;-67
2023/03/08 00:51:51;;;;;;;5.07;3.63;;;;;;;10.16;40.87;94088.03;4967112;28;20229;-67
2023/03/08 00:54:17;;;;;;;5.17;3.67;;;;;;;10.27;40.81;94095.56;4961805;28;20228;-67
2023/03/08 00:56:42;;;;;;;3.97;3.60;;;;;;;10.22;41.05;94091.78;4969270;28;20229;-67
2023/03/08 00:59:08;;;;;;;5.33;3.80;;;;;;;10.28;40.55;94085.88;4965471;28;20220;-67
2023/03/08 01:01:33;;;;;;;5.23;3.67;;;;;;;10.21;41.13;94095.38;4963518;28;20196;-67
2023/03/08 01:04:00;;;;;;;5.60;3.40;;;;;;;10.24;40.78;94093.25;4961267;28;20212;-67
2023/03/08 01:06:25;;;;;;;4.97;3.40;;;;;;;10.20;40.99;94096.38;4967017;28;20244;-67
2023/03/08 01:08:51;;;;;;;4.33;3.77;;;;;;;10.11;41.13;94104.31;4966350;28;20244;-67
2023/03/08 01:11:20;;;;;;;5.20;3.93;;;;;;;10.05;41.51;94102.38;4967863;28;20717;-66
2023/03/08 01:13:47;;;;;;;6.13;4.00;;;;;;;10.05;41.65;94091.03;4962458;28;20657;-66
2023/03/08 01:16:24;;;;;;;4.40;4.00;;;;;;;10.02;41.67;94091.38;4965453;28;20212;-66
2023/03/08 01:18:50;;;;;;;5.60;3.97;;;;;;;9.70;42.44;94104.47;4984470;28;20226;-67
2023/03/08 01:21:17;;;;;;;5.33;3.40;;;;;;;9.90;42.26;94104.06;4965199;28;20311;-67
2023/03/08 01:23:42;;;;;;;5.23;4.13;;;;;;;9.86;42.27;94102.75;4972185;28;20323;-67
2023/03/08 01:26:12;;;;;;;4.77;3.93;;;;;;;9.91;42.54;94100.44;4966456;28;20227;-67
2023/03/08 01:28:38;;;;;;;5.80;4.23;;;;;;;9.56;43.07;94105.16;4969189;28;20258;-67
2023/03/08 01:31:09;;;;;;;5.07;4.37;;;;;;;9.56;43.04;94097.28;4968655;28;20184;-67
2023/03/08 01:33:35;;;;;;;5.50;4.53;;;;;;;9.60;42.97;94103.03;4965253;28;20230;-67
2023/03/08 01:36:07;;;;;;;7.87;4.40;;;;;;;9.66;43.06;94104.97;4965590;28;20295;-67
2023/03/08 01:38:32;;;;;;;6.67;4.47;;;;;;;9.77;42.55;94101.97;4964501;28;20228;-66
2023/03/08 01:41:00;;;;;;;4.87;4.00;;;;;;;9.26;43.88;94118.00;4964764;28;20227;-66
2023/03/08 01:43:29;;;;;;;5.93;5.20;;;;;;;9.33;44.03;94114.69;4962382;28;20300;-68
2023/03/08 01:46:06;;;;;;;6.63;5.10;;;;;;;9.45;43.61;94116.00;4987968;28;20259;-68
2023/03/08 01:48:59;;;;;;;8.80;5.73;;;;;;;9.35;43.93;94103.06;4985850;28;20795;-67
2023/03/08 01:51:47;;;;;;;8.13;5.10;;;;;;;9.38;43.84;94099.28;4982051;28;20212;-66
2023/03/08 01:54:38;;;;;;;8.10;5.73;;;;;;;9.42;43.78;94096.16;4987105;28;20219;-67
2023/03/08 01:57:40;;;;;;;6.97;4.97;;;;;;;9.30;44.23;94102.72;4967288;28;20227;-68
2023/03/08 02:00:17;;;;;;;7.50;4.47;;;;;;;9.28;44.19;94118.66;4972087;28;20219;-68
2023/03/08 02:02:49;;;;;;;5.33;4.57;;;;;;;9.13;44.56;94107.19;4975265;28;20232;-67
2023/03/08 02:05:15;;;;;;;7.07;4.20;;;;;;;9.20;44.44;94108.16;4951467;28;20302;-67
2023/03/08 02:07:41;;;;;;;4.97;4.40;;;;;;;9.08;44.45;94125.22;4984771;28;20203;-67
2023/03/08 02:10:08;;;;;;;5.00;4.50;;;;;;;9.11;44.60;94113.56;4951763;28;20243;-68
2023/03/08 02:12:35;;;;;;;4.90;4.10;;;;;;;9.04;44.73;94105.56;4949555;28;20243;-67
2023/03/08 02:15:03;;;;;;;6.37;4.47;;;;;;;8.81;45.48;94123.72;4960561;28;20258;-67
2023/03/08 02:17:30;;;;;;;5.93;4.07;;;;;;;8.22;47.04;94113.28;4969129;28;20902;-67
2023/03/08 02:20:09;;;;;;;6.80;4.30;;;;;;;8.66;46.10;94083.41;4966722;28;20586;-68
2023/03/08 02:22:39;;;;;;;6.27;4.27;;;;;;;8.66;46.03;94099.16;4980357;28;20195;-67
2023/03/08 02:25:18;;;;;;;8.47;4.50;;;;;;;8.87;45.66;94119.63;4981148;28;20202;-68
2023/03/08 02:27:43;;;;;;;5.20;4.47;;;;;;;8.62;46.10;94119.63;4966748;28;20220;-67
2023/03/08 02:30:11;;;;;;;7.93;4.33;;;;;;;8.76;45.85;94110.28;4949164;28;20231;-67
2023/03/08 02:32:37;;;;;;;6.37;4.57;;;;;;;8.85;45.70;94090.97;4953676;28;20298;-68
2023/03/08 02:35:03;;;;;;;5.33;4.30;;;;;;;8.98;45.56;94114.06;4983008;28;20224;-68
2023/03/08 02:37:31;;;;;;;5.87;4.30;;;;;;;8.81;45.49;94111.44;4971786;28;20199;-66
2023/03/08 02:39:56;;;;;;;6.13;4.63;;;;;;;8.89;45.37;94125.53;4965070;28;20211;-68
2023/03/08 02:42:21;;;;;;;5.17;4.00;;;;;;;8.75;45.82;94119.97;4970151;28;20224;-67
2023/03/08 02:44:47;;;;;;;5.43;4.47;;;;;;;8.90;45.92;94121.94;4972333;28;20222;-67
2023/03/08 02:47:12;;;;;;;7.93;4.90;;;;;;;8.83;45.86;94150.63;4976977;28;20235;-67
2023/03/08 02:49:38;;;;;;;4.90;4.40;;;;;;;8.54;46.87;94115.19;4989540;28;20193;-67
2023/03/08 02:52:03;;;;;;;6.30;4.43;;;;;;;8.62;46.33;94117.00;4991964;28;20190;-67
2023/03/08 02:54:29;;;;;;;6.27;4.47;;;;;;;8.73;46.19;94124.53;4991626;28;20224;-68
2023/03/08 02:56:54;;;;;;;5.30;4.80;;;;;;;8.75;45.91;94135.69;4978308;28;20227;-68
2023/03/08 02:59:20;;;;;;;5.67;4.90;;;;;;;8.88;45.76;94129.97;4990114;28;20254;-68
2023/03/08 03:01:45;;;;;;;5.70;4.77;;;;;;;8.76;46.29;94132.06;4996101;28;20302;-68
2023/03/08 03:04:11;;;;;;;6.27;4.73;;;;;;;8.71;46.24;94144.84;4987136;28;20187;-67
2023/03/08 03:06:36;;;;;;;7.60;4.37;;;;;;;8.64;46.17;94128.16;4986533;28;20224;-68
2023/03/08 03:09:06;;;;;;;6.53;4.93;;;;;;;8.65;46.59;94163.84;4987926;28;20231;-68
2023/03/08 03:11:31;;;;;;;6.00;4.40;;;;;;;8.51;46.68;94140.91;4991207;28;20306;-68
2023/03/08 03:13:58;;;;;;;5.20;4.57;;;;;;;8.48;47.11;94130.75;4994237;28;20772;-68
2023/03/08 03:16:25;;;;;;;7.50;5.60;;;;;;;8.33;47.53;94173.22;4989561;28;20191;-67
2023/03/08 03:18:52;;;;;;;8.17;4.97;;;;;;;8.08;48.22;94137.47;4975097;28;20245;-67
2023/03/08 03:21:18;;;;;;;7.00;5.03;;;;;;;8.27;47.59;94131.97;4994134;28;20227;-67
2023/03/08 03:23:43;;;;;;;7.47;5.27;;;;;;;8.27;47.72;94163.38;4992318;28;20219;-67
2023/03/08 03:26:12;;;;;;;10.87;5.17;;;;;;;7.80;49.09;94121.94;4989999;28;20227;-67
2023/03/08 03:28:37;;;;;;;6.80;5.00;;;;;;;8.05;48.59;94138.59;4992005;28;20214;-67
2023/03/08 03:31:12;;;;;;;6.60;5.20;;;;;;;7.92;49.29;94167.81;4993586;28;20174;-68
2023/03/08 03:33:38;;;;;;;6.47;5.40;;;;;;;7.93;48.80;94140.66;4986442;28;20229;-68
2023/03/08 03:36:04;;;;;;;7.33;5.30;;;;;;;8.18;48.37;94140.78;4989184;28;20249;-68
2023/03/08 03:38:29;;;;;;;7.13;5.40;;;;;;;8.22;48.54;94180.56;4986790;28;20224;-66
2023/03/08 03:41:06;;;;;;;6.97;5.73;;;;;;;8.17;48.61;94158.28;4992693;28;20223;-67
2023/03/08 03:43:31;;;;;;;8.53;6.00;;;;;;;8.28;48.08;94158.97;4984419;28;20192;-67
2023/03/08 03:45:59;;;;;;;6.33;5.47;;;;;;;8.23;48.46;94169.91;4987044;28;20219;-70
2023/03/08 03:48:24;;;;;;;6.77;5.70;;;;;;;8.20;48.61;94174.66;4992259;28;20212;-68
2023/03/08 03:51:20;;;;;;;6.57;5.73;;;;;;;8.31;47.84;94164.72;4993110;28;20274;-67
2023/03/08 03:53:46;;;;;;;7.73;5.50;;;;;;;8.19;48.47;94152.88;4980668;28;20227;-68
2023/03/08 03:56:22;;;;;;;7.20;5.60;;;;;;;8.18;48.61;94177.44;4987145;28;20259;-68
2023/03/08 03:58:49;;;;;;;8.83;5.87;;;;;;;7.88;49.33;94181.38;4982811;28;20262;-68
2023/03/08 04:01:20;;;;;;;8.03;5.87;;;;;;;7.95;49.20;94159.66;4986866;28;20234;-66
2023/03/08 04:03:47;;;;;;;8.67;5.73;;;;;;;8.05;49.06;94159.53;4990965;28;20215;-67
2023/03/08 04:06:14;;;;;;;6.33;5.50;;;;;;;8.06;49.47;94176.06;4984719;28;20224;-68
2023/03/08 04:08:43;;;;;;;7.80;5.70;;;;;;;8.17;48.61;94176.59;4989682;28;20250;-68
2023/03/08 04:11:11;;;;;;;8.03;6.13;;;;;;;8.21;48.77;94163.22;4986250;28;20219;-68
2023/03/08 04:13:37;;;;;;;6.57;5.60;;;;;;;8.16;48.96;94168.91;4990719;28;20202;-68
2023/03/08 04:16:16;;;;;;;8.63;5.90;;;;;;;8.16;48.87;94176.78;4986043;28;20249;-69
2023/03/08 04:18:42;;;;;;;7.17;5.50;;;;;;;8.13;48.67;94188.38;4988760;28;20226;-66
2023/03/08 04:21:08;;;;;;;7.63;5.83;;;;;;;8.21;48.40;94176.31;4989378;28;20237;-66
2023/03/08 04:23:34;;;;;;;11.30;6.03;;;;;;;8.06;49.25;94186.53;4987290;28;20303;-67
2023/03/08 04:26:00;;;;;;;9.43;5.87;;;;;;;7.93;49.29;94179.94;4986756;28;20339;-67
2023/03/08 04:28:26;;;;;;;10.43;6.13;;;;;;;8.06;49.12;94181.31;4985998;28;20258;-67
2023/03/08 04:30:52;;;;;;;11.20;6.77;;;;;;;8.13;49.12;94188.38;4987467;28;20223;-67
2023/03/08 04:33:18;;;;;;;8.00;6.47;;;;;;;8.12;48.97;94175.44;4988113;28;20257;-67
2023/03/08 04:35:43;;;;;;;12.93;6.77;;;;;;;8.13;48.95;94175.28;4990905;28;20222;-67
2023/03/08 04:38:09;;;;;;;10.87;6.07;;;;;;;8.22;48.71;94188.41;4985253;28;20233;-62
2023/03/08 04:41:00;;;;;;;7.33;6.10;;;;;;;8.23;48.57;94169.91;4988154;28;20205;-62
2023/03/08 04:43:23;;;;;;;8.87;6.60;;;;;;;8.09;49.30;94171.34;4988118;28;20199;-62
2023/03/08 04:45:48;;;;;;;11.70;6.77;;;;;;;8.10;49.28;94172.16;4989084;28;20220;-66
2023/03/08 04:48:14;;;;;;;10.17;6.60;;;;;;;8.17;49.12;94173.16;4986945;28;20247;-65
2023/03/08 04:50:39;;;;;;;11.73;7.20;;;;;;;8.13;49.19;94170.06;4987835;28;20287;-65
2023/03/08 04:53:05;;;;;;;10.77;6.63;;;;;;;7.92;49.61;94172.25;4989383;28;20210;-65
2023/03/08 04:55:30;;;;;;;10.17;6.67;;;;;;;7.97;49.63;94179.63;4981181;28;20188;-67
2023/03/08 04:57:56;;;;;;;9.87;6.90;;;;;;;7.97;49.88;94179.63;4990727;28;20206;-65
2023/03/08 05:00:21;;;;;;;9.80;6.07;;;;;;;7.78;50.39;94183.28;4988665;28;20227;-67
2023/03/08 05:02:47;;;;;;;9.77;6.80;;;;;;;7.85;50.19;94186.94;4989914;28;20291;-64
2023/03/08 05:05:14;;;;;;;8.83;6.50;;;;;;;7.84;50.39;94193.97;4984537;28;20265;-64
2023/03/08 05:07:39;;;;;;;9.57;5.93;;;;;;;7.81;49.93;94189.03;4990032;28;20195;-63
2023/03/08 05:10:05;;;;;;;11.03;6.37;;;;;;;7.65;50.60;94200.22;4989735;28;20282;-67
2023/03/08 05:12:30;;;;;;;9.73;6.97;;;;;;;7.56;50.71;94197.69;4990209;28;21379;-64
2023/03/08 05:14:55;;;;;;;11.63;7.03;;;;;;;7.66;50.53;94201.03;4993031;28;20234;-63
2023/03/08 05:17:21;;;;;;;9.80;7.03;;;;;;;7.77;50.55;94216.47;4990765;28;20227;-64
2023/03/08 05:19:46;;;;;;;16.07;7.67;;;;;;;7.83;50.23;94213.28;4989703;28;20190;-65
2023/03/08 05:22:12;;;;;;;12.67;8.20;;;;;;;7.90;50.22;94216.88;4989226;28;20274;-65
2023/03/08 05:24:39;;;;;;;14.73;8.13;;;;;;;7.97;49.77;94211.06;4991543;28;20258;-66
2023/03/08 05:27:08;;;;;;;11.40;8.53;;;;;;;8.01;49.82;94228.06;4974258;28;20224;-65
2023/03/08 05:29:36;;;;;;;10.90;8.50;;;;;;;8.01;49.79;94231.50;4970555;28;20223;-65
2023/03/08 05:32:02;;;;;;;14.17;8.10;;;;;;;7.96;49.82;94241.63;4968198;28;20271;-66
2023/03/08 05:34:28;;;;;;;12.67;8.93;;;;;;;7.95;50.17;94237.38;4962819;28;20201;-65
2023/03/08 05:36:53;;;;;;;15.20;9.13;;;;;;;7.85;50.12;94242.72;4987130;28;20707;-65
2023/03/08 05:39:19;;;;;;;15.77;9.40;;;;;;;7.49;51.53;94248.03;4984318;28;20219;-64
2023/03/08 05:41:45;;;;;;;14.63;9.37;;;;;;;7.80;50.58;94250.19;4987486;28;20223;-65
2023/03/08 05:44:13;;;;;;;15.90;8.93;;;;;;;7.85;50.61;94252.34;4988051;28;20211;-63
2023/03/08 05:46:39;;;;;;;13.57;7.90;;;;;;;7.88;50.34;94259.91;4984055;28;20212;-61
2023/03/08 05:49:05;;;;;;;13.43;9.20;;;;;;;7.90;50.27;94258.78;4986378;28;20207;-64
2023/03/08 05:51:31;;;;;;;11.90;8.50;;;;;;;7.55;51.37;94246.59;4984623;28;20230;-61
2023/03/08 05:53:56;;;;;;;15.53;9.30;;;;;;;7.77;50.60;94260.97;4986186;28;20223;-65
2023/03/08 05:56:23;;;;;;;18.03;10.47;;;;;;;7.80;50.96;94260.66;4988961;28;20227;-66
2023/03/08 05:58:50;;;;;;;19.27;10.20;;;;;;;7.83;50.66;94259.53;4981649;28;20227;-64
2023/03/08 06:01:19;;;;;;;18.57;9.20;;;;;;;7.82;51.02;94269.19;4985993;28;20218;-63
2023/03/08 06:03:47;;;;;;;18.47;9.87;;;;;;;7.86;51.22;94275.78;4987211;28;20231;-66
2023/03/08 06:06:13;;;;;;;21.70;9.63;;;;;;;7.91;50.67;94280.53;4982434;28;20243;-66
2023/03/08 06:08:39;;;;;;;17.90;9.10;;;;;;;7.81;50.96;94272.78;4981472;28;20232;-63
2023/03/08 06:11:05;;;;;;;18.47;10.07;;;;;;;7.98;50.50;94278.13;4985633;28;20277;-65
2023/03/08 06:13:31;;;;;;;16.83;9.57;;;;;;;8.01;50.49;94276.03;4982518;28;20196;-65
2023/03/08 06:15:58;;;;;;;17.90;9.50;;;;;;;7.90;51.04;94278.91;4979054;28;20202;-66
2023/03/08 06:18:23;;;;;;;16.73;8.60;;;;;;;8.06;50.52;94280.81;4983875;28;20234;-66
2023/03/08 06:21:01;;;;;;;15.70;9.53;;;;;;;8.13;50.21;94293.13;4987554;28;20224;-65
2023/03/08 06:23:28;;;;;;;15.00;8.97;;;;;;;8.19;50.49;94283.81;4979900;28;20310;-63
2023/03/08 06:25:54;;;;;;;18.73;9.50;;;;;;;8.24;50.12;94292.03;4981849;28;20231;-66
2023/03/08 06:28:20;;;;;;;18.17;10.10;;;;;;;8.35;49.62;94290.94;4985150;28;20191;-66
2023/03/08 06:30:49;;;;;;;18.13;8.97;;;;;;;8.45;49.49;94296.94;4982346;28;20564;-66
2023/03/08 06:33:20;;;;;;;15.73;8.73;;;;;;;8.56;49.35;94294.03;4981906;28;20242;-66
2023/03/08 06:36:01;;;;;;;12.27;8.13;;;;;;;8.63;49.02;94302.06;4988846;28;20297;-69
2023/03/08 06:38:28;;;;;;;11.87;7.60;;;;;;;8.57;49.20;94294.84;4985043;28;20232;-69
2023/03/08 06:40:53;;;;;;;15.23;8.00;;;;;;;8.61;49.21;94298.81;4980379;28;20352;-68
2023/03/08 06:43:19;;;;;;;18.83;8.20;;;;;;;8.65;49.01;94297.50;4986395;28;20204;-71
2023/03/08 06:45:45;;;;;;;17.10;8.30;;;;;;;8.72;49.12;94302.94;4989223;28;20341;-69
2023/03/08 06:48:11;;;;;;;22.63;9.60;;;;;;;8.86;49.02;94309.38;4982494;28;20407;-69
2023/03/08 06:50:36;;;;;;;16.97;8.80;;;;;;;8.77;48.92;94305.91;4989909;28;20295;-65
2023/03/08 06:53:02;;;;;;;14.30;9.13;;;;;;;8.82;48.55;94309.72;4984449;28;20302;-67
2023/03/08 06:55:27;;;;;;;11.63;7.03;;;;;;;8.99;48.37;94307.13;4987777;28;20196;-67
2023/03/08 06:57:54;;;;;;;12.83;7.37;;;;;;;9.09;48.18;94315.69;4982153;28;20220;-67
2023/03/08 07:00:20;;;;;;;13.80;7.20;;;;;;;8.89;48.78;94325.59;4985407;28;20299;-64
2023/03/08 07:02:47;;;;;;;11.67;7.07;;;;;;;8.97;48.19;94337.94;4986122;28;20290;-65
2023/03/08 07:05:14;;;;;;;9.97;7.13;;;;;;;9.04;48.41;94333.72;4988893;28;20647;-64
2023/03/08 07:07:41;;;;;;;10.70;7.23;;;;;;;9.17;48.10;94334.06;4986283;28;20214;-64
2023/03/08 07:10:07;;;;;;;14.23;7.93;;;;;;;9.22;47.91;94336.19;4986376;28;20345;-63
2023/03/08 07:12:35;;;;;;;12.05;7.07;;;;;;;9.21;48.06;94337.19;4986775;28;20314;-64
2023/03/08 07:15:01;;;;;;;11.37;6.50;;;;;;;9.44;47.56;94345.28;4987206;28;20211;-64
2023/03/08 07:17:26;;;;;;;11.13;7.33;;;;;;;9.55;47.52;94346.78;4981265;28;20223;-64
2023/03/08 07:19:51;;;;;;;15.10;6.87;;;;;;;9.72;47.15;94348.44;4983728;28;20289;-66
2023/03/08 07:22:17;;;;;;;9.73;7.00;;;;;;;9.82;47.06;94341.22;4981427;28;20211;-67
2023/03/08 07:24:46;;;;;;;17.80;8.00;;;;;;;9.88;47.17;94345.81;4987926;28;20650;-67
2023/03/08 07:27:12;;;;;;;11.93;6.93;;;;;;;9.90;47.05;94348.28;4985753;28;20338;-66
2023/03/08 07:29:37;;;;;;;11.67;7.13;;;;;;;9.87;47.03;94344.19;4985467;28;20334;-68
2023/03/08 07:32:03;;;;;;;9.70;6.65;;;;;;;10.02;46.59;94344.31;4983896;28;20223;-67
2023/03/08 07:34:28;;;;;;;10.83;6.97;;;;;;;10.06;46.11;94342.22;4984248;28;20195;-68
2023/03/08 07:36:53;;;;;;;16.30;7.80;;;;;;;10.03;46.59;94340.72;4984842;28;20294;-66
2023/03/08 07:39:19;;;;;;;9.85;7.00;;;;;;;10.04;46.62;94344.19;4983689;28;20217;-67
2023/03/08 07:41:44;;;;;;;13.73;8.18;;;;;;;10.04;46.86;94346.81;4987179;28;20276;-67
2023/03/08 07:44:10;;;;;;;12.13;7.10;;;;;;;10.16;46.55;94350.75;4986663;28;20273;-67
2023/03/08 07:46:35;;;;;;;17.45;6.97;;;;;;;10.13;46.76;94346.66;4984898;28;20503;-63
2023/03/08 07:49:00;;;;;;;11.45;7.00;;;;;;;10.19;46.63;94352.22;4982605;28;20219;-67
2023/03/08 07:51:26;;;;;;;9.82;7.25;;;;;;;10.23;46.60;94346.44;4986263;28;20247;-63
2023/03/08 07:53:51;;;;;;;9.13;6.73;;;;;;;10.28;46.38;94346.00;4984251;28;20266;-66
2023/03/08 07:56:17;;;;;;;15.55;6.93;;;;;;;10.38;46.17;94350.09;4985485;28;20311;-63
2023/03/08 07:58:43;;;;;;;13.55;6.82;;;;;;;10.48;46.14;94355.16;4986236;28;20191;-68
2023/03/08 08:01:09;;;;;;;17.10;6.80;;;;;;;10.50;45.87;94350.53;4982884;28;20210;-65
2023/03/08 08:03:36;;;;;;;9.95;6.25;;;;;;;10.67;46.05;94347.91;4973482;28;20231;-65
2023/03/08 08:06:03;;;;;;;11.57;6.43;;;;;;;10.79;45.47;94343.91;4982442;28;20223;-63
2023/03/08 08:08:29;;;;;;;13.27;8.32;;;;;;;10.73;45.49;94344.59;4985387;28;20239;-64
2023/03/08 08:10:54;;;;;;;17.30;8.02;;;;;;;10.68;45.44;94355.59;4986937;28;20892;-65
2023/03/08 08:13:20;;;;;;;13.15;7.90;;;;;;;10.53;45.64;94352.03;4981640;28;20226;-68
2023/03/08 08:15:45;;;;;;;15.95;8.48;;;;;;;10.64;45.63;94348.22;4986250;28;20306;-66
2023/03/08 08:18:11;;;;;;;11.77;7.07;;;;;;;10.75;45.27;94347.88;4983385;28;20231;-67
2023/03/08 08:20:36;;;;;;;13.93;7.90;;;;;;;10.78;45.17;94350.97;4986946;28;20227;-69
2023/03/08 08:23:05;;;;;;;13.80;9.47;;;;;;;10.85;45.07;94348.47;4983814;28;20210;-68
2023/03/08 08:25:30;;;;;;;15.27;8.65;;;;;;;10.87;44.69;94349.13;4982579;28;20227;-67
2023/03/08 08:27:56;;;;;;;12.48;8.52;;;;;;;11.04;44.37;94356.00;4982795;28;20222;-69
2023/03/08 08:30:22;;;;;;;12.10;6.60;;;;;;;11.13;44.37;94355.94;4986394;28;20219;-68
2023/03/08 08:32:47;;;;;;;16.23;8.03;;;;;;;10.82;45.02;94354.94;4982862;28;20234;-70
2023/03/08 08:35:13;;;;;;;10.77;7.43;;;;;;;10.14;46.77;94361.41;4987222;28;20242;-69
2023/03/08 08:37:38;;;;;;;13.07;7.83;;;;;;;10.66;45.58;94352.31;4984790;28;20731;-68
2023/03/08 08:40:06;;;;;;;10.50;7.57;;;;;;;11.00;45.06;94359.13;4987729;28;20216;-66
2023/03/08 08:42:32;;;;;;;11.52;7.88;;;;;;;11.39;44.10;94356.47;4987336;28;20227;-68
2023/03/08 08:44:57;;;;;;;12.57;7.45;;;;;;;11.38;44.19;94354.81;4988823;28;20313;-68
2023/03/08 08:47:23;;;;;;;11.13;7.80;;;;;;;11.90;42.68;94358.66;4988327;28;20266;-66
2023/03/08 08:49:48;;;;;;;10.10;6.63;;;;;;;11.73;43.43;94350.00;4988629;28;20239;-62
2023/03/08 08:52:13;;;;;;;8.30;6.93;;;;;;;11.94;42.55;94356.50;4989172;28;20228;-62
2023/03/08 08:54:39;;;;;;;10.50;7.57;;;;;;;11.66;43.24;94355.16;4986991;28;20226;-64
2023/03/08 08:57:05;;;;;;;10.50;7.03;;;;;;;11.57;43.65;94353.56;4990883;28;20315;-63
2023/03/08 08:59:31;;;;;;;8.80;6.68;;;;;;;11.69;43.10;94346.91;4988013;28;20227;-65
2023/03/08 09:01:57;;;;;;;15.45;8.15;;;;;;;11.87;42.96;94351.13;4985114;28;20211;-64
2023/03/08 09:04:22;;;;;;;9.18;7.20;;;;;;;12.01;42.44;94355.63;4988791;28;20219;-67
2023/03/08 09:06:48;;;;;;;9.52;7.28;;;;;;;12.36;41.63;94359.44;4986480;28;20239;-63
2023/03/08 09:09:14;;;;;;;9.77;8.27;;;;;;;12.14;42.06;94347.13;4988004;28;20248;-68
2023/03/08 09:11:40;;;;;;;13.10;8.63;;;;;;;11.72;42.79;94351.00;4987808;28;20287;-68
2023/03/08 09:14:06;;;;;;;10.95;7.47;;;;;;;11.95;42.70;94356.31;4986893;28;20184;-64
2023/03/08 09:16:32;;;;;;;12.30;7.68;;;;;;;12.10;42.42;94356.34;4988509;28;20219;-64
2023/03/08 09:19:00;;;;;;;11.18;8.43;;;;;;;12.05;42.50;94351.59;4988915;28;20227;-67
2023/03/08 09:21:27;;;;;;;13.38;7.93;;;;;;;11.73;43.08;94347.38;4983040;28;20263;-71
2023/03/08 09:23:52;;;;;;;10.90;7.80;;;;;;;11.85;42.66;94348.63;4987795;28;20224;-66
2023/03/08 09:26:18;;;;;;;13.68;8.30;;;;;;;11.94;42.68;94340.69;4985701;28;20207;-63
2023/03/08 09:28:43;;;;;;;13.98;7.63;;;;;;;12.24;42.01;94336.31;4989712;28;20199;-65
2023/03/08 09:31:17;;;;;;;15.27;7.50;;;;;;;12.36;41.59;94338.34;4986224;28;20338;-68
2023/03/08 09:33:46;;;;;;;14.20;8.07;;;;;;;12.56;41.61;94337.81;4988957;28;20220;-68
2023/03/08 09:36:11;;;;;;;10.50;7.45;;;;;;;12.43;41.71;94332.34;4998168;28;20761;-66
2023/03/08 09:38:37;;;;;;;12.30;7.07;;;;;;;12.57;41.41;94332.38;4985367;28;20330;-66
2023/03/08 09:41:18;;;;;;;11.85;7.85;;;;;;;12.78;41.04;94329.03;4983777;28;20195;-67
2023/03/08 09:43:57;;;;;;;13.85;7.45;;;;;;;12.59;41.27;94334.84;4986022;28;20242;-64
2023/03/08 09:46:29;;;;;;;10.60;7.90;;;;;;;12.58;40.84;94322.63;4980919;28;20318;-66
2023/03/08 09:48:59;;;;;;;10.18;7.70;;;;;;;12.46;41.38;94319.63;4986576;28;20235;-66
2023/03/08 09:51:33;;;;;;;11.85;7.53;;;;;;;12.72;41.01;94321.84;4992705;28;20311;-65
2023/03/08 09:54:05;;;;;;;11.65;7.40;;;;;;;12.89;40.93;94319.81;5001723;28;20224;-67
2023/03/08 09:56:55;;;;;;;13.10;8.13;;;;;;;12.99;40.38;94320.38;4998775;28;20290;-65
2023/03/08 09:59:29;;;;;;;9.07;7.25;;;;;;;13.08;40.50;94317.63;4991902;28;20307;-67
2023/03/08 10:02:03;;;;;;;11.43;7.80;;;;;;;13.08;40.54;94310.53;4980308;28;20208;-65
2023/03/08 10:04:29;;;;;;;12.05;8.00;;;;;;;13.72;39.14;94309.03;4985596;28;20227;-63
2023/03/08 10:07:20;;;;;;;12.43;7.55;;;;;;;13.31;40.20;94313.06;4987159;28;20228;-66
2023/03/08 10:10:02;;;;;;;10.90;7.88;;;;;;;13.15;40.35;94307.94;4983000;28;20317;-66
2023/03/08 10:12:33;;;;;;;8.98;7.05;;;;;;;13.41;39.74;94307.47;4987787;28;20293;-66
2023/03/08 10:15:07;;;;;;;12.23;7.55;;;;;;;13.55;39.35;94301.34;4987537;28;20231;-66
2023/03/08 10:17:49;;;;;;;14.15;11.23;;;;;;;13.79;39.17;94301.97;4984016;28;20203;-66
2023/03/08 10:20:34;;;;;;;10.27;6.93;;;;;;;13.97;38.61;94301.53;4985051;28;20188;-65
2023/03/08 10:23:15;;;;;;;10.25;6.70;;;;;;;13.79;41.13;94299.31;4966238;28;20240;-68
2023/03/08 10:25:41;;;;;;;8.52;7.63;;;;;;;13.50;40.92;94289.69;4979976;28;20220;-67
2023/03/08 10:28:16;;;;;;;10.15;7.30;;;;;;;14.09;39.16;94294.72;4970383;28;20214;-67
2023/03/08 10:30:47;;;;;;;11.38;7.78;;;;;;;14.11;38.21;94303.28;4971067;28;20184;-67
2023/03/08 10:33:16;;;;;;;8.38;7.07;;;;;;;13.82;38.68;94289.22;4968441;28;20196;-67
2023/03/08 10:36:08;;;;;;;11.02;7.68;;;;;;;13.96;39.48;94299.91;4969863;28;20244;-67
2023/03/08 10:38:35;;;;;;;9.95;7.03;;;;;;;13.89;39.33;94294.53;4970928;28;20262;-67
2023/03/08 10:41:11;;;;;;;11.20;7.80;;;;;;;14.16;39.20;94295.59;4970084;28;20200;-67
2023/03/08 10:43:56;;;;;;;10.55;8.55;;;;;;;14.84;37.15;94287.13;4967655;28;20227;-67
2023/03/08 10:46:29;;;;;;;11.57;8.20;;;;;;;14.51;37.32;94290.34;4967030;28;20215;-67
2023/03/08 10:49:05;;;;;;;15.23;9.00;;;;;;;14.72;38.12;94274.44;4953415;28;20226;-67
2023/03/08 10:51:31;;;;;;;11.88;8.77;;;;;;;14.80;37.26;94276.09;4964876;28;20263;-67
2023/03/08 10:54:02;;;;;;;11.85;8.80;;;;;;;14.88;38.21;94270.63;4957236;28;20192;-67
2023/03/08 10:56:45;;;;;;;10.43;7.13;;;;;;;14.84;37.29;94269.41;4968806;28;20184;-67
2023/03/08 10:59:20;;;;;;;12.18;7.97;;;;;;;14.87;37.57;94258.44;4963442;28;20193;-67
2023/03/08 11:01:52;;;;;;;10.55;7.57;;;;;;;14.91;36.59;94259.66;4966183;28;20192;-67
2023/03/08 11:04:20;;;;;;;14.15;8.75;;;;;;;14.90;37.64;94254.56;4971207;28;20188;-67
2023/03/08 11:06:46;;;;;;;11.82;8.20;;;;;;;15.03;38.62;94262.56;4970403;28;20306;-67
2023/03/08 11:09:35;;;;;;;10.77;7.25;;;;;;;14.80;35.51;94251.47;4968948;28;20314;-67
2023/03/08 11:12:01;;;;;;;9.65;6.05;;;;;;;14.65;37.31;94252.44;4969403;28;20188;-67
2023/03/08 11:14:28;;;;;;;9.05;5.30;;;;;;;14.74;37.08;94239.84;4966415;28;20192;-67
2023/03/08 11:17:06;;;;;;;6.65;5.50;;;;;;;14.82;37.85;94239.66;4970709;28;20189;-67
2023/03/08 11:20:09;;;;;;;9.82;5.80;;;;;;;14.98;35.68;94236.69;4966013;28;20192;-67
2023/03/08 11:22:41;;;;;;;11.13;6.68;;;;;;;15.07;36.57;94229.38;4966749;28;20291;-68
2023/03/08 11:25:17;;;;;;;9.23;5.90;;;;;;;15.18;38.40;94230.63;4971713;28;20255;-68
2023/03/08 11:28:11;;;;;;;7.13;5.75;;;;;;;15.30;35.64;94215.81;4965446;28;20212;-68
2023/03/08 11:30:37;;;;;;;5.85;5.25;;;;;;;15.39;35.74;94211.94;4966077;28;20205;-68
2023/03/08 11:33:40;;;;;;;10.27;5.35;;;;;;;15.34;35.19;94202.97;4970125;28;20216;-67
2023/03/08 11:36:19;;;;;;;7.90;5.38;;;;;;;15.43;36.17;94197.28;4969525;28;20527;-66
2023/03/08 11:38:55;;;;;;;7.43;4.90;;;;;;;16.06;33.91;94201.41;4966075;28;20193;-68
2023/03/08 11:41:58;;;;;;;9.95;5.20;;;;;;;15.48;35.58;94201.19;4968521;28;20191;-68